createdAt,value
2019-03-18T00:01:48.012Z,5.00
2019-03-18T00:06:51.745Z,4.90
2019-03-18T00:11:55.423Z,4.90
2019-03-18T00:16:59.080Z,4.90
2019-03-18T00:22:02.748Z,4.80
2019-03-18T00:27:06.427Z,4.80
2019-03-18T00:32:10.107Z,4.70
2019-03-18T00:37:14.156Z,4.70
2019-03-18T00:42:17.879Z,4.70
2019-03-18T00:47:21.599Z,4.70
2019-03-18T00:52:25.278Z,4.70
2019-03-18T00:57:28.954Z,4.70
2019-03-18T01:02:32.638Z,4.60
2019-03-18T01:07:36.385Z,4.70
2019-03-18T01:12:40.096Z,4.60
2019-03-18T01:17:43.779Z,4.60
2019-03-18T01:22:47.475Z,4.60
2019-03-18T01:27:51.150Z,4.60
2019-03-18T01:32:54.889Z,4.50
2019-03-18T01:37:58.581Z,4.50
2019-03-18T01:43:02.541Z,4.50
2019-03-18T01:48:06.237Z,4.40
2019-03-18T01:53:09.955Z,4.40
2019-03-18T01:58:13.640Z,4.50
2019-03-18T02:03:17.341Z,4.50
2019-03-18T02:08:21.049Z,4.40
2019-03-18T02:13:24.737Z,4.40
2019-03-18T02:18:28.428Z,4.40
2019-03-18T02:23:32.133Z,4.40
2019-03-18T02:28:36.406Z,4.40
2019-03-18T02:33:40.180Z,4.40
2019-03-18T02:38:43.846Z,4.30
2019-03-18T02:43:47.545Z,4.40
2019-03-18T02:48:51.671Z,4.40
2019-03-18T02:53:55.523Z,4.30
2019-03-18T02:58:59.286Z,4.30
2019-03-18T03:04:02.962Z,4.30
2019-03-18T03:09:07.715Z,4.30
2019-03-18T03:14:11.455Z,4.30
2019-03-18T03:19:15.126Z,4.30
2019-03-18T03:24:18.795Z,4.20
2019-03-18T03:29:22.581Z,4.20
2019-03-18T03:34:26.270Z,4.20
2019-03-18T03:39:29.983Z,4.20
2019-03-18T03:44:33.676Z,4.20
2019-03-18T03:49:37.443Z,4.20
2019-03-18T03:54:41.554Z,4.10
2019-03-18T03:59:45.235Z,4.20
2019-03-18T04:04:48.948Z,4.10
2019-03-18T04:09:52.717Z,4.10
2019-03-18T04:14:56.415Z,4.20
2019-03-18T04:20:00.116Z,4.20
2019-03-18T04:25:04.261Z,4.20
2019-03-18T04:30:08.361Z,4.20
2019-03-18T04:35:12.189Z,4.20
2019-03-18T04:40:15.862Z,4.20
2019-03-18T04:45:19.538Z,4.20
2019-03-18T04:50:23.218Z,4.30
2019-03-18T04:55:26.889Z,4.30
2019-03-18T05:00:30.557Z,4.30
2019-03-18T05:05:34.536Z,4.40
2019-03-18T05:10:38.230Z,4.40
2019-03-18T05:15:42.395Z,4.40
2019-03-18T05:20:46.147Z,4.40
2019-03-18T05:25:50.146Z,4.40
2019-03-18T05:30:53.828Z,4.50
2019-03-18T05:35:57.501Z,4.50
2019-03-18T05:41:01.194Z,4.50
2019-03-18T05:46:04.874Z,4.50
2019-03-18T05:51:08.580Z,4.60
2019-03-18T05:56:12.364Z,4.60
2019-03-18T06:01:16.033Z,4.60
2019-03-18T06:06:19.709Z,4.60
2019-03-18T06:11:23.734Z,4.60
2019-03-18T06:16:27.763Z,4.60
2019-03-18T06:21:31.505Z,4.60
2019-03-18T06:26:35.534Z,4.70
2019-03-18T06:31:39.220Z,4.70
2019-03-18T06:36:44.050Z,4.70
2019-03-18T06:41:49.701Z,4.70
2019-03-18T06:46:53.169Z,4.70
2019-03-18T06:51:56.835Z,4.80
2019-03-18T06:57:00.942Z,4.80
2019-03-18T07:02:04.604Z,4.80
2019-03-18T07:07:08.568Z,4.90
2019-03-18T07:12:12.221Z,4.90
2019-03-18T07:17:15.913Z,4.90
2019-03-18T07:22:19.820Z,5.00
2019-03-18T07:27:23.755Z,5.10
2019-03-18T07:32:27.538Z,5.10
2019-03-18T07:37:31.447Z,5.20
2019-03-18T07:42:35.440Z,5.20
2019-03-18T07:47:39.370Z,5.30
2019-03-18T07:52:43.294Z,5.40
2019-03-18T07:57:46.956Z,5.40
2019-03-18T08:02:50.617Z,5.40
2019-03-18T08:07:54.293Z,5.50
2019-03-18T08:12:58.130Z,5.50
2019-03-18T08:18:01.800Z,5.60
2019-03-18T08:23:05.843Z,5.70
2019-03-18T08:28:09.572Z,5.80
2019-03-18T08:33:13.236Z,5.90
2019-03-18T08:38:16.889Z,5.90
2019-03-18T08:43:20.580Z,6.00
2019-03-18T08:48:24.243Z,6.00
2019-03-18T08:53:28.216Z,6.10
2019-03-18T08:58:31.901Z,6.10
2019-03-18T09:03:35.597Z,6.20
2019-03-18T09:08:39.260Z,6.30
2019-03-18T09:13:42.925Z,6.40
2019-03-18T09:18:46.595Z,6.50
2019-03-18T09:23:50.269Z,6.50
2019-03-18T09:28:53.921Z,6.60
2019-03-18T09:33:57.628Z,6.70
2019-03-18T09:39:01.554Z,6.70
2019-03-18T09:44:05.269Z,6.80
2019-03-18T09:49:20.599Z,6.80
2019-03-18T09:54:14.363Z,6.90
2019-03-18T09:59:18.982Z,6.90
2019-03-18T10:04:22.777Z,6.90
2019-03-18T10:09:26.535Z,6.90
2019-03-18T10:14:30.661Z,7.00
2019-03-18T10:19:34.353Z,7.00
2019-03-18T10:24:38.335Z,7.00
2019-03-18T10:29:42.449Z,7.00
2019-03-18T10:34:46.376Z,7.00
2019-03-18T10:39:50.050Z,7.00
2019-03-18T10:44:53.805Z,7.10
2019-03-18T10:49:57.472Z,7.10
2019-03-18T10:55:01.134Z,7.20
2019-03-18T11:00:05.677Z,7.30
2019-03-18T11:05:09.796Z,7.30
2019-03-18T11:10:13.726Z,7.30
2019-03-18T11:15:17.793Z,7.40
2019-03-18T11:20:22.477Z,7.30
2019-03-18T11:25:26.380Z,7.40
2019-03-18T11:30:30.089Z,7.40
2019-03-18T11:35:33.870Z,7.50
2019-03-18T11:40:37.644Z,7.50
2019-03-18T11:45:41.330Z,7.60
2019-03-18T11:50:45.091Z,7.70
2019-03-18T11:55:48.956Z,7.70
2019-03-18T12:00:57.078Z,7.70
2019-03-18T12:06:00.851Z,7.80
2019-03-18T12:11:04.720Z,7.80
2019-03-18T12:16:08.418Z,7.80
2019-03-18T12:21:12.321Z,8.00
2019-03-18T12:26:15.989Z,8.10
2019-03-18T12:31:20.381Z,8.30
2019-03-18T12:36:24.376Z,8.40
2019-03-18T12:41:29.654Z,8.40
2019-03-18T12:46:33.450Z,8.30
2019-03-18T12:51:37.172Z,8.20
2019-03-18T12:56:40.842Z,8.10
2019-03-18T13:01:47.998Z,8.10
2019-03-18T13:06:51.908Z,8.10
2019-03-18T13:11:55.921Z,8.00
2019-03-18T13:16:59.582Z,8.10
2019-03-18T13:22:03.289Z,8.10
2019-03-18T13:27:07.029Z,8.20
2019-03-18T13:32:10.717Z,8.30
2019-03-18T13:37:14.414Z,8.30
2019-03-18T13:42:18.091Z,8.40
2019-03-18T13:47:21.814Z,8.40
2019-03-18T13:52:25.506Z,8.40
2019-03-18T13:57:29.169Z,8.40
2019-03-18T14:02:32.865Z,8.40
2019-03-18T14:07:36.562Z,8.40
2019-03-18T14:12:40.311Z,8.60
2019-03-18T14:17:44.076Z,8.60
2019-03-18T14:22:47.729Z,8.70
2019-03-18T14:27:51.403Z,8.70
2019-03-18T14:32:55.081Z,8.80
2019-03-18T14:37:59.443Z,8.80
2019-03-18T14:43:07.275Z,8.80
2019-03-18T14:48:11.018Z,8.80
2019-03-18T14:53:14.956Z,8.70
2019-03-18T14:58:20.987Z,8.70
2019-03-18T15:03:24.959Z,8.60
2019-03-18T15:08:30.017Z,8.50
2019-03-18T15:13:37.008Z,8.20
2019-03-18T15:18:40.750Z,7.70
2019-03-18T15:23:44.429Z,7.40
2019-03-18T15:28:48.098Z,7.10
2019-03-18T15:33:52.101Z,6.90
2019-03-18T15:38:55.809Z,6.90
2019-03-18T15:43:59.517Z,6.90
2019-03-18T15:49:04.365Z,7.00
2019-03-18T15:54:09.172Z,7.00
2019-03-18T15:59:12.843Z,7.00
2019-03-18T16:04:16.569Z,7.20
2019-03-18T16:09:20.828Z,7.30
2019-03-18T16:14:24.503Z,7.40
2019-03-18T16:19:28.321Z,7.50
2019-03-18T16:24:32.174Z,7.50
2019-03-18T16:29:35.832Z,7.50
2019-03-18T16:34:39.526Z,7.50
2019-03-18T16:39:43.352Z,7.50
2019-03-18T16:44:47.072Z,7.50
2019-03-18T16:49:50.777Z,7.50
2019-03-18T16:54:54.494Z,7.40
2019-03-18T16:59:58.173Z,7.30
2019-03-18T17:05:01.871Z,7.20
2019-03-18T17:10:06.160Z,7.10
2019-03-18T17:15:10.216Z,7.00
2019-03-18T17:20:13.973Z,6.90
2019-03-18T17:25:18.060Z,6.80
2019-03-18T17:30:21.981Z,6.70
2019-03-18T17:35:25.690Z,6.60
2019-03-18T17:40:29.557Z,6.60
2019-03-18T17:45:36.147Z,6.50
2019-03-18T17:50:39.984Z,6.40
2019-03-18T17:55:43.935Z,6.40
2019-03-18T18:00:50.200Z,6.30
2019-03-18T18:05:54.121Z,6.30
2019-03-18T18:10:57.826Z,6.20
2019-03-18T18:16:01.533Z,6.20
2019-03-18T18:21:05.565Z,6.20
2019-03-18T18:26:09.265Z,6.10
2019-03-18T18:31:13.237Z,6.00
2019-03-18T18:36:17.146Z,6.00
2019-03-18T18:41:27.006Z,6.00
2019-03-18T18:46:31.647Z,6.00
2019-03-18T18:51:35.637Z,6.00
2019-03-18T18:56:39.685Z,6.00
2019-03-18T19:01:44.679Z,6.00
2019-03-18T19:06:48.644Z,6.00
2019-03-18T19:11:52.480Z,6.00
2019-03-18T19:16:56.959Z,6.00
2019-03-18T19:22:01.171Z,6.00
2019-03-18T19:27:05.045Z,6.00
2019-03-18T19:32:08.861Z,6.00
2019-03-18T19:37:15.329Z,6.00
2019-03-18T19:42:19.873Z,6.00
2019-03-18T19:47:23.714Z,6.00
2019-03-18T19:52:27.534Z,6.00
2019-03-18T19:57:31.538Z,6.00
2019-03-18T20:02:36.153Z,6.00
2019-03-18T20:07:39.846Z,6.00
2019-03-18T20:12:43.963Z,5.90
2019-03-18T20:17:48.220Z,5.90
2019-03-18T20:22:52.599Z,5.90
2019-03-18T20:27:56.420Z,5.90
2019-03-18T20:33:00.540Z,5.90
2019-03-18T20:38:04.396Z,5.90
2019-03-18T20:43:08.619Z,5.90
2019-03-18T20:48:12.397Z,5.80
2019-03-18T20:53:16.442Z,5.80
2019-03-18T20:58:20.230Z,5.80
2019-03-18T21:03:25.032Z,5.80
2019-03-18T21:08:28.705Z,5.80
2019-03-18T21:13:32.408Z,5.80
2019-03-18T21:18:36.101Z,5.80
2019-03-18T21:23:41.247Z,5.70
2019-03-18T21:28:45.403Z,5.80
2019-03-18T21:33:49.153Z,5.70
2019-03-18T21:38:53.961Z,5.70
2019-03-18T21:43:57.655Z,5.70
2019-03-18T21:49:01.308Z,5.70
2019-03-18T21:54:05.364Z,5.60
2019-03-18T21:59:09.069Z,5.60
2019-03-18T22:04:12.756Z,5.60
2019-03-18T22:09:17.503Z,5.50
2019-03-18T22:14:21.201Z,5.50
2019-03-18T22:19:24.897Z,5.40
2019-03-18T22:24:28.812Z,5.40
2019-03-18T22:29:32.528Z,5.40
2019-03-18T22:34:36.233Z,5.40
2019-03-18T22:39:39.955Z,5.30
2019-03-18T22:44:43.635Z,5.40
2019-03-18T22:49:47.324Z,5.40
2019-03-18T22:54:55.833Z,5.40
2019-03-18T22:59:56.397Z,5.40
2019-03-18T23:05:00.065Z,5.30
2019-03-18T23:10:04.327Z,5.30
2019-03-18T23:15:08.089Z,5.30
2019-03-18T23:20:11.926Z,5.30
2019-03-18T23:25:15.978Z,5.30
2019-03-18T23:30:19.650Z,5.30
2019-03-18T23:35:23.345Z,5.30
2019-03-18T23:40:27.039Z,5.20
2019-03-18T23:45:30.748Z,5.20
2019-03-18T23:50:34.440Z,5.20
2019-03-18T23:55:38.148Z,5.20
